Latest Weather Observations for Taree Airport

IDN60801

Issued at 2:05 pm EDT Tuesday 27 January 2015 (issued every 30 minutes, with the page automatically refreshed every 10 minutes)

About weather observations | Map of weather stations | Latest weather observations for NSW | Other Formats
Station Details ID: 060141 Name: TAREE AIRPORT AWS Lat: -31.89 Lon: 152.51 Height: 8.0 m
Data from the previous 72 hours. | See also: Recent months at Taree Airport
Date/Time
EDT
Temp
°C
App
Temp
°C
Dew
Point
Rel
Hum
%
Delta-T
°C
Wind Press
QNH
hPa
Press
MSL
hPa
Rain
since 9 am
mm
Dir
 
Spd
km/h
Gust
km/h
Spd
kts
Gust
kts
27/02:00pm 21.0 21.6 18.6 86 1.5 E 13 17 7 9 1010.4 1010.3 3.2
27/01:30pm 20.5 21.7 19.0 91 0.9 NNE 11 19 6 10 1010.6 1010.5 2.8
27/01:00pm 21.2 22.8 19.1 88 1.3 N 9 15 5 8 1010.9 1010.8 0.8
27/12:30pm 22.6 24.5 18.6 78 2.5 ENE 6 15 3 8 1011.0 1010.9 0.0
27/12:00pm 22.7 23.7 17.8 74 3.0 E 9 13 5 7 1011.2 1011.1 0.0
27/11:30am 22.8 23.1 17.9 74 3.1 ENE 13 17 7 9 1011.3 1011.2 0.0
27/11:00am 21.4 21.4 18.0 81 2.1 NE 15 22 8 12 1011.5 1011.4 0.0
27/10:30am 22.7 22.9 17.6 73 3.2 ENE 13 19 7 10 1011.3 1011.2 0.0
27/10:00am 23.2 24.1 18.5 75 3.0 E 11 15 6 8 1011.2 1011.1 0.0
27/09:30am 23.1 25.4 19.9 82 2.1 NE 7 9 4 5 1011.0 1010.9 0.0
27/09:00am 22.4 26.0 19.8 85 1.7 CALM 0 0 0 0 1011.2 1011.1 24.0
27/08:30am 21.9 25.7 20.2 90 1.1 CALM 0 0 0 0 1010.9 1010.8 24.0
27/08:00am 21.6 24.3 20.6 94 0.6 SW 7 9 4 5 1010.9 1010.8 24.0
27/07:30am 20.8 23.4 20.0 95 0.5 WSW 6 7 3 4 1010.7 1010.6 24.0
27/07:00am 20.4 22.6 19.6 95 0.5 W 7 9 4 5 1010.5 1010.4 24.0
27/06:30am 20.4 22.6 19.6 95 0.5 NNW 7 9 4 5 1010.1 1010.0 24.0
27/06:00am 20.5 23.8 19.2 92 0.8 CALM 0 0 0 0 1010.0 1009.9 24.0
27/05:30am 20.2 21.7 19.0 93 0.8 ESE 9 15 5 8 1009.7 1009.6 24.0
27/05:00am 20.0 22.0 19.2 95 0.5 E 7 11 4 6 1009.9 1009.8 24.0
27/04:30am 20.2 20.5 19.5 96 0.4 ENE 17 35 9 19 1009.8 1009.7 23.8
27/04:00am 20.7 22.8 20.2 97 0.3 WSW 9 13 5 7 1010.0 1009.9 22.4
27/03:30am 20.7 23.0 19.9 95 0.5 NW 7 11 4 6 1010.3 1010.2 22.0
27/03:00am 20.6 22.3 19.3 92 0.8 SSE 9 9 5 5 1010.2 1010.1 21.4
27/02:30am 20.7 22.3 19.9 95 0.5 SSE 11 13 6 7 1010.4 1010.3 21.4
27/02:00am 20.4 21.5 19.6 95 0.5 SE 13 19 7 10 1010.7 1010.6 21.4
27/01:31am 20.7 22.5 20.4 98 0.2 SE 11 17 6 9 1010.9 1010.8 21.2
27/01:30am 20.8 22.7 20.5 98 0.2 SE 11 17 6 9 1011.0 1010.9 21.2
27/01:12am 20.9 23.1 20.4 97 0.3 SE 9 11 5 6 1011.3 1011.2 19.8
27/01:00am 20.8 23.0 20.3 97 0.3 SE 9 11 5 6 1011.5 1011.4 19.6
27/12:42am 20.6 22.4 20.3 98 0.2 ESE 11 15 6 8 1011.5 1011.4 19.6
27/12:30am 20.9 23.2 20.6 98 0.2 ESE 9 15 5 8 1011.7 1011.6 19.6
27/12:00am 20.7 22.8 20.2 97 0.3 ESE 9 13 5 7 1012.2 1012.1 19.4
 
Date/Time
EDT
Temp
°C
App
Temp
°C
Dew
Point
Rel
Hum
%
Delta-T
°C
Wind Press
QNH
hPa
Press
MSL
hPa
Rain
since 9 am
mm
Dir
 
Spd
km/h
Gust
km/h
Spd
kts
Gust
kts
26/11:41pm 20.8 23.0 20.3 97 0.3 NE 9 15 5 8 1012.6 1012.5 16.4
26/11:40pm 20.7 22.8 20.2 97 0.3 NE 9 15 5 8 1012.6 1012.5 16.0
26/11:30pm 20.7 21.9 20.0 96 0.4 NE 13 19 7 10 1012.6 1012.5 12.8
26/11:00pm 21.0 22.5 20.5 97 0.3 ENE 13 17 7 9 1012.7 1012.6 10.6
26/10:32pm 21.2 23.2 20.7 97 0.3 E 11 20 6 11 1012.9 1012.8 9.8
26/10:30pm 21.2 23.5 20.7 97 0.3 ESE 9 13 5 7 1012.9 1012.8 9.8
26/10:00pm 21.2 23.1 20.5 96 0.5 S 11 15 6 8 1012.5 1012.4 8.4
26/09:30pm 21.3 23.6 20.6 96 0.5 S 9 13 5 7 1012.5 1012.4 8.4
26/09:08pm 21.2 23.1 20.5 96 0.5 SSE 11 15 6 8 1012.5 1012.4 8.4
26/09:00pm 21.2 23.1 20.5 96 0.5 SSE 11 19 6 10 1012.3 1012.2 8.4
26/08:47pm 21.3 22.9 20.8 97 0.3 S 13 17 7 9 1012.2 1012.1 8.2
26/08:30pm 21.2 22.8 20.7 97 0.3 S 13 17 7 9 1011.7 1011.6 7.8
26/08:14pm 21.1 22.2 20.4 96 0.5 SSW 15 20 8 11 1011.9 1011.8 7.4
26/08:00pm 21.2 22.3 20.5 96 0.5 SSW 15 20 8 11 1011.5 1011.4 7.4
26/07:40pm 21.5 23.1 20.8 96 0.5 S 13 19 7 10 1011.2 1011.1 7.2
26/07:30pm 21.4 22.9 20.6 95 0.5 SE 13 20 7 11 1010.9 1010.8 7.0
26/07:00pm 21.3 21.9 20.3 94 0.6 SSE 17 24 9 13 1010.5 1010.4 6.4
26/06:48pm 21.2 21.4 20.2 94 0.6 S 19 26 10 14 1010.5 1010.4 6.4
26/06:34pm 21.3 21.5 20.5 95 0.5 S 20 28 11 15 1010.6 1010.5 6.4
26/06:30pm 21.3 21.5 20.5 95 0.5 S 20 28 11 15 1010.7 1010.6 6.4
26/06:00pm 22.1 22.9 20.7 92 0.9 S 17 22 9 12 1010.4 1010.3 6.4
26/05:30pm 22.6 23.7 21.2 92 0.9 SSE 17 28 9 15 1009.8 1009.7 6.4
26/05:00pm 23.1 24.6 20.6 86 1.6 S 13 15 7 8 1010.2 1010.1 6.4
26/04:30pm 23.5 24.3 20.6 84 1.9 SSE 17 24 9 13 1009.9 1009.8 6.4
26/04:00pm 23.8 23.2 19.7 78 2.6 SSE 22 32 12 17 1009.8 1009.7 6.4
26/03:30pm 24.3 24.3 20.2 78 2.7 SE 20 32 11 17 1010.1 1010.0 6.4
26/03:00pm 24.0 24.0 20.9 83 2.0 SSE 22 35 12 19 1010.0 1009.9 6.4
26/02:30pm 24.4 24.7 20.7 80 2.4 SSE 20 30 11 16 1010.1 1010.0 6.4
26/02:00pm 24.2 24.4 21.3 84 1.9 S 22 30 12 16 1010.1 1010.0 6.4
26/01:30pm 24.1 24.2 21.2 84 1.9 SSE 22 30 12 16 1010.1 1010.0 6.4
26/01:00pm 24.6 25.5 21.9 85 1.8 SSE 20 32 11 17 1010.3 1010.2 6.4
26/12:30pm 24.1 25.1 22.2 89 1.3 SSE 20 30 11 16 1010.6 1010.5 6.4
26/12:00pm 23.0 23.9 21.6 92 0.9 S 19 28 10 15 1011.2 1011.1 6.4
26/11:30am 22.9 24.1 21.4 91 1.0 SSE 17 26 9 14 1011.0 1010.9 6.4
26/11:00am 23.3 25.0 21.6 90 1.1 SSE 15 20 8 11 1010.8 1010.7 6.0
26/10:30am 23.1 25.2 21.7 92 0.9 S 13 19 7 10 1010.9 1010.8 6.0
26/10:00am 22.7 25.8 21.5 93 0.8 WNW 7 11 4 6 1011.0 1010.9 5.0
26/09:30am 22.8 24.3 21.3 91 1.0 SSE 15 24 8 13 1010.6 1010.5 0.0
26/09:00am 22.7 23.0 21.5 93 0.8 SSE 22 32 12 17 1010.3 1010.2 0.4
26/08:30am 22.8 21.5 21.4 92 0.9 SSE 30 41 16 22 1009.8 1009.7 0.2
26/08:16am 22.9 22.7 21.2 90 1.1 S 24 43 13 23 1009.4 1009.3 0.2
26/08:00am 23.5 24.2 21.6 89 1.3 S 20 32 11 17 1009.4 1009.3 0.2
26/07:34am 24.2 26.3 22.5 90 1.1 S 15 19 8 10 1008.9 1008.8 0.2
26/07:30am 24.2 25.9 22.3 89 1.3 S 17 24 9 13 1009.0 1008.9 0.2
26/07:00am 24.6 25.7 22.3 87 1.5 SSE 20 28 11 15 1008.6 1008.5 0.2
26/06:42am 24.5 26.3 22.6 89 1.3 S 17 22 9 12 1008.3 1008.2 0.2
26/06:30am 24.5 26.7 22.6 89 1.3 S 15 19 8 10 1008.2 1008.1 0.2
26/06:00am 24.5 27.1 22.6 89 1.3 SSW 13 20 7 11 1008.0 1007.9 0.2
26/05:30am 24.6 27.5 21.7 84 1.9 SSW 9 13 5 7 1007.7 1007.6 0.0
26/05:20am 24.6 27.1 21.7 84 1.9 SW 11 15 6 8 1007.7 1007.6 0.0
26/05:00am 24.6 26.9 21.3 82 2.2 SW 11 17 6 9 1007.4 1007.3 0.0
26/04:30am 24.5 27.0 21.0 81 2.3 WSW 9 13 5 7 1007.4 1007.3 0.0
26/04:00am 24.6 26.6 20.7 79 2.6 WSW 11 15 6 8 1007.3 1007.2 0.0
26/03:30am 24.3 27.5 20.4 79 2.5 WNW 4 7 2 4 1007.0 1006.9 0.0
26/03:00am 24.0 27.6 20.5 81 2.3 WNW 2 9 1 5 1006.5 1006.4 0.0
26/02:30am 23.8 27.5 20.7 83 2.0 NW 2 7 1 4 1006.3 1006.2 0.0
26/02:00am 24.2 28.0 20.9 82 2.2 SE 2 7 1 4 1006.3 1006.2 0.0
26/01:30am 23.6 27.5 20.3 82 2.1 CALM 0 0 0 0 1005.9 1005.8 0.0
26/01:00am 24.1 26.3 20.4 80 2.4 S 9 15 5 8 1005.7 1005.6 0.0
26/12:30am 23.4 25.9 21.1 87 1.5 SSW 9 11 5 6 1005.6 1005.5 0.0
26/12:00am 23.8 26.8 21.3 86 1.6 SSW 7 9 4 5 1005.5 1005.4 0.0
 
Date/Time
EDT
Temp
°C
App
Temp
°C
Dew
Point
Rel
Hum
%
Delta-T
°C
Wind Press
QNH
hPa
Press
MSL
hPa
Rain
since 9 am
mm
Dir
 
Spd
km/h
Gust
km/h
Spd
kts
Gust
kts
25/11:30pm 24.1 28.1 20.6 81 2.3 CALM 0 0 0 0 1005.5 1005.4 0.0
25/11:00pm 24.1 27.8 20.0 78 2.7 CALM 0 0 0 0 1005.6 1005.5 0.0
25/10:30pm 24.3 28.1 20.2 78 2.7 CALM 0 0 0 0 1005.2 1005.1 0.0
25/10:00pm 24.6 28.0 20.1 76 2.9 NE 2 7 1 4 1005.0 1004.9 0.0
25/09:30pm 25.0 28.7 20.0 74 3.2 CALM 0 0 0 0 1004.9 1004.8 0.0
25/09:00pm 25.9 29.6 20.0 70 3.8 CALM 0 0 0 0 1004.4 1004.3 0.0
25/08:30pm 27.0 30.5 19.6 64 4.8 CALM 0 0 0 0 1004.1 1004.0 0.0
25/08:00pm 27.6 29.9 19.9 63 5.0 ENE 7 9 4 5 1003.9 1003.8 0.0
25/07:30pm 29.3 30.5 19.0 53 6.7 ENE 11 13 6 7 1003.5 1003.4 0.0
25/07:00pm 30.2 30.9 18.9 50 7.3 E 13 17 7 9 1003.1 1003.0 0.0
25/06:30pm 30.4 30.7 18.8 50 7.5 ENE 15 19 8 10 1003.0 1002.9 0.0
25/06:00pm 31.0 31.5 18.4 47 8.2 ESE 13 19 7 10 1002.8 1002.7 0.0
25/05:30pm 31.1 31.5 18.1 46 8.4 ESE 13 17 7 9 1002.5 1002.4 0.0
25/05:00pm 31.2 31.9 18.9 48 8.0 E 13 19 7 10 1002.4 1002.3 0.0
25/04:30pm 31.4 31.5 19.1 48 8.0 ESE 17 26 9 14 1002.5 1002.4 0.0
25/04:00pm 32.0 31.6 19.3 47 8.4 ESE 20 30 11 16 1002.2 1002.1 0.0
25/03:30pm 31.6 31.6 18.9 47 8.3 ESE 17 26 9 14 1002.2 1002.1 0.0
25/03:00pm 31.4 31.3 18.7 46 8.3 ESE 17 26 9 14 1002.2 1002.1 0.0
25/02:30pm 33.4 34.4 20.2 46 8.8 E 15 20 8 11 1002.0 1001.9 0.0
25/02:00pm 32.2 33.5 20.8 51 7.7 ESE 15 19 8 10 1002.1 1002.0 0.0
25/01:30pm 32.9 35.1 19.7 45 8.7 E 7 22 4 12 1002.2 1002.1 0.0
25/01:00pm 32.9 33.3 19.0 43 9.1 ESE 15 22 8 12 1002.3 1002.2 0.0
25/12:30pm 34.6 33.7 17.8 37 10.9 SSW 19 28 10 15 1002.5 1002.4 0.0
25/12:00pm 33.1 33.7 18.5 42 9.5 SW 13 19 7 10 1002.7 1002.6 0.0
25/11:30am 31.9 33.0 18.1 43 8.9 SW 9 19 5 10 1003.0 1002.9 0.0
25/11:00am 30.8 33.5 19.5 51 7.4 WSW 4 9 2 5 1003.2 1003.1 0.0
25/10:30am 29.8 31.6 19.5 54 6.7 SSE 9 11 5 6 1003.2 1003.1 0.0
25/10:00am 28.5 31.3 20.8 63 5.1 SSW 7 11 4 6 1003.5 1003.4 0.0
25/09:30am 27.9 31.3 21.0 66 4.6 W 4 9 2 5 1003.5 1003.4 0.0
25/09:00am 26.3 29.7 20.2 69 4.0 E 2 9 1 5 1003.7 1003.6 0.0
25/08:30am 26.4 30.4 20.5 70 3.9 CALM 0 0 0 0 1003.7 1003.6 0.0
25/08:00am 24.8 27.6 20.9 79 2.6 NW 7 9 4 5 1003.8 1003.7 0.0
25/07:30am 23.5 26.2 20.6 84 1.9 WNW 7 9 4 5 1003.4 1003.3 0.0
25/07:00am 22.5 27.0 21.5 94 0.7 CALM 0 0 0 0 1003.2 1003.1 0.0
25/06:30am 21.6 24.4 20.9 96 0.5 WNW 7 7 4 4 1003.1 1003.0 0.0
25/06:00am 21.5 24.3 20.8 96 0.5 SSW 7 7 4 4 1002.8 1002.7 0.0
25/05:30am 21.3 24.1 20.5 95 0.5 NNE 6 11 3 6 1002.6 1002.5 0.0
25/05:00am 22.0 24.8 20.8 93 0.8 SW 7 9 4 5 1002.5 1002.4 0.0
25/04:30am 21.9 24.5 20.5 92 0.9 E 7 11 4 6 1002.2 1002.1 0.0
25/04:00am 22.3 25.0 20.6 90 1.1 NW 7 11 4 6 1002.8 1002.7 0.0
25/03:30am 22.5 26.2 20.8 90 1.1 NNW 2 9 1 5 1002.8 1002.7 0.0
25/03:00am 22.6 24.2 20.7 89 1.2 NW 13 15 7 8 1003.8 1003.7 0.0
25/02:30am 22.5 24.1 20.8 90 1.1 NW 13 15 7 8 1004.4 1004.3 0.0
25/02:00am 23.0 27.0 21.3 90 1.1 NW 2 7 1 4 1004.4 1004.3 0.0
25/01:30am 22.9 27.2 21.2 90 1.1 CALM 0 6 0 3 1005.1 1005.0 0.0
25/01:00am 22.8 25.9 21.4 92 0.9 WSW 7 11 4 6 1005.5 1005.4 0.0
25/12:30am 22.3 26.5 20.9 92 0.9 CALM 0 0 0 0 1005.3 1005.2 0.0
25/12:00am 22.0 26.0 20.5 91 1.0 CALM 0 0 0 0 1005.3 1005.2 0.0
 
Date/Time
EDT
Temp
°C
App
Temp
°C
Dew
Point
Rel
Hum
%
Delta-T
°C
Wind Press
QNH
hPa
Press
MSL
hPa
Rain
since 9 am
mm
Dir
 
Spd
km/h
Gust
km/h
Spd
kts
Gust
kts
24/11:30pm 22.3 25.1 20.4 89 1.2 E 6 7 3 4 1005.5 1005.4 0.0
24/11:00pm 22.5 25.4 20.6 89 1.2 E 6 7 3 4 1005.6 1005.5 0.0
24/10:30pm 22.6 24.8 20.5 88 1.4 ENE 9 9 5 5 1005.6 1005.5 0.0
24/10:00pm 23.0 25.6 20.5 86 1.6 NE 7 11 4 6 1005.7 1005.6 0.0
24/09:30pm 23.7 25.3 20.8 84 1.9 ENE 13 19 7 10 1005.4 1005.3 0.0
24/09:00pm 24.0 25.2 20.7 82 2.2 ENE 15 22 8 12 1005.0 1004.9 0.0
24/08:30pm 24.4 26.0 20.7 80 2.4 ENE 13 19 7 10 1004.7 1004.6 0.0
24/08:00pm 24.9 26.1 20.6 77 2.8 E 15 20 8 11 1004.2 1004.1 0.0
24/07:30pm 25.7 26.8 20.5 73 3.4 ENE 15 20 8 11 1004.1 1004.0 0.0
24/07:00pm 26.3 26.4 20.4 70 3.9 ENE 20 30 11 16 1003.7 1003.6 0.0
24/06:30pm 27.1 27.5 20.7 68 4.2 ENE 19 30 10 16 1003.6 1003.5 0.0
24/06:00pm 27.3 27.4 20.4 66 4.5 E 20 30 11 16 1003.7 1003.6 0.0
24/05:30pm 27.9 27.9 20.2 63 5.0 E 20 32 11 17 1003.8 1003.7 0.0
24/05:00pm 28.0 27.4 19.8 61 5.4 E 22 32 12 17 1004.3 1004.2 0.0
24/04:30pm 28.3 27.7 19.8 60 5.5 ENE 22 30 12 16 1004.6 1004.5 0.0
24/04:00pm 28.4 28.5 20.4 62 5.3 E 20 28 11 15 1004.8 1004.7 0.0
24/03:30pm 28.6 28.0 19.8 59 5.7 E 22 30 12 16 1005.4 1005.3 0.0
24/03:00pm 28.8 28.6 19.7 58 6.0 ESE 20 30 11 16 1005.7 1005.6 0.0
24/02:30pm 28.7 28.3 19.3 56 6.1 E 20 28 11 15 1005.9 1005.8 0.0

Other Formats:

Comma delimited format used in spreadsheet applications
http://www.bom.gov.au/fwo/IDN60801/IDN60801.95784.axf

JavaScript Object Notation format (JSON) in row-major order
http://www.bom.gov.au/fwo/IDN60801/IDN60801.95784.json